sensor_id;sensor_type;location;lat;lon;timestamp;temperature;humidity
5919;DHT22;2985;48.142;16.344;2022-08-14T00:00:12;20.50;99.90
5919;DHT22;2985;48.142;16.344;2022-08-14T00:05:22;20.60;99.90
5919;DHT22;2985;48.142;16.344;2022-08-14T00:10:32;20.40;99.90
5919;DHT22;2985;48.142;16.344;2022-08-14T00:15:43;20.30;99.90
5919;DHT22;2985;48.142;16.344;2022-08-14T00:20:54;20.40;99.90
5919;DHT22;2985;48.142;16.344;2022-08-14T00:26:05;20.30;99.90
5919;DHT22;2985;48.142;16.344;2022-08-14T00:31:14;20.30;99.90
5919;DHT22;2985;48.142;16.344;2022-08-14T00:36:24;20.30;99.90
5919;DHT22;2985;48.142;16.344;2022-08-14T00:41:33;20.40;99.90
5919;DHT22;2985;48.142;16.344;2022-08-14T00:46:43;20.50;99.90
5919;DHT22;2985;48.142;16.344;2022-08-14T00:51:53;20.50;99.90
5919;DHT22;2985;48.142;16.344;2022-08-14T00:57:03;20.70;99.90
5919;DHT22;2985;48.142;16.344;2022-08-14T01:02:14;20.80;99.90
5919;DHT22;2985;48.142;16.344;2022-08-14T01:07:26;20.70;99.90
5919;DHT22;2985;48.142;16.344;2022-08-14T01:12:37;20.80;99.90
5919;DHT22;2985;48.142;16.344;2022-08-14T01:17:49;20.80;99.90
5919;DHT22;2985;48.142;16.344;2022-08-14T01:23:17;20.80;99.90
5919;DHT22;2985;48.142;16.344;2022-08-14T01:28:26;20.80;99.90
5919;DHT22;2985;48.142;16.344;2022-08-14T01:33:37;20.80;99.90
5919;DHT22;2985;48.142;16.344;2022-08-14T01:38:48;20.80;99.90
5919;DHT22;2985;48.142;16.344;2022-08-14T01:44:00;20.70;99.90
5919;DHT22;2985;48.142;16.344;2022-08-14T01:49:12;20.70;99.90
5919;DHT22;2985;48.142;16.344;2022-08-14T01:54:24;20.70;99.90
5919;DHT22;2985;48.142;16.344;2022-08-14T01:59:33;20.70;99.90
5919;DHT22;2985;48.142;16.344;2022-08-14T02:04:44;20.70;99.90
5919;DHT22;2985;48.142;16.344;2022-08-14T02:09:54;20.70;99.90
5919;DHT22;2985;48.142;16.344;2022-08-14T02:14:57;20.70;99.90
5919;DHT22;2985;48.142;16.344;2022-08-14T02:20:09;20.70;99.90
5919;DHT22;2985;48.142;16.344;2022-08-14T02:25:18;20.70;99.90
5919;DHT22;2985;48.142;16.344;2022-08-14T02:30:28;20.70;99.90
5919;DHT22;2985;48.142;16.344;2022-08-14T02:35:40;20.70;99.90
5919;DHT22;2985;48.142;16.344;2022-08-14T02:40:50;20.60;99.90
5919;DHT22;2985;48.142;16.344;2022-08-14T02:45:59;20.60;99.90
5919;DHT22;2985;48.142;16.344;2022-08-14T02:51:11;20.70;99.90
5919;DHT22;2985;48.142;16.344;2022-08-14T02:56:21;20.70;99.90
5919;DHT22;2985;48.142;16.344;2022-08-14T03:01:30;20.70;99.90
5919;DHT22;2985;48.142;16.344;2022-08-14T03:06:40;20.80;99.90
5919;DHT22;2985;48.142;16.344;2022-08-14T03:11:51;20.70;99.90
5919;DHT22;2985;48.142;16.344;2022-08-14T03:17:00;20.70;99.90
5919;DHT22;2985;48.142;16.344;2022-08-14T03:22:09;20.60;99.90
5919;DHT22;2985;48.142;16.344;2022-08-14T03:27:19;20.60;99.90
5919;DHT22;2985;48.142;16.344;2022-08-14T03:32:28;20.60;99.90
5919;DHT22;2985;48.142;16.344;2022-08-14T03:37:39;20.60;99.90
5919;DHT22;2985;48.142;16.344;2022-08-14T03:42:50;20.60;99.90
5919;DHT22;2985;48.142;16.344;2022-08-14T03:48:01;20.60;99.90
5919;DHT22;2985;48.142;16.344;2022-08-14T03:53:12;20.60;99.90
5919;DHT22;2985;48.142;16.344;2022-08-14T03:58:22;20.60;99.90
5919;DHT22;2985;48.142;16.344;2022-08-14T04:03:31;20.60;99.90
5919;DHT22;2985;48.142;16.344;2022-08-14T04:08:41;20.60;99.90
5919;DHT22;2985;48.142;16.344;2022-08-14T04:13:51;20.70;99.90
5919;DHT22;2985;48.142;16.344;2022-08-14T04:19:00;20.60;99.90
5919;DHT22;2985;48.142;16.344;2022-08-14T04:24:12;20.60;99.90
5919;DHT22;2985;48.142;16.344;2022-08-14T04:29:22;20.60;99.90
5919;DHT22;2985;48.142;16.344;2022-08-14T04:34:31;20.60;99.90
5919;DHT22;2985;48.142;16.344;2022-08-14T04:39:43;20.70;99.90
5919;DHT22;2985;48.142;16.344;2022-08-14T04:45:11;20.70;99.90
5919;DHT22;2985;48.142;16.344;2022-08-14T04:50:22;20.70;99.90
5919;DHT22;2985;48.142;16.344;2022-08-14T04:55:31;20.80;99.90
5919;DHT22;2985;48.142;16.344;2022-08-14T05:00:41;20.70;99.90
5919;DHT22;2985;48.142;16.344;2022-08-14T05:05:53;20.70;99.90
5919;DHT22;2985;48.142;16.344;2022-08-14T05:11:05;20.80;99.90
5919;DHT22;2985;48.142;16.344;2022-08-14T05:16:14;20.80;99.90
5919;DHT22;2985;48.142;16.344;2022-08-14T05:21:23;20.80;99.90
5919;DHT22;2985;48.142;16.344;2022-08-14T05:26:33;20.80;99.90
5919;DHT22;2985;48.142;16.344;2022-08-14T05:31:42;20.90;99.90
5919;DHT22;2985;48.142;16.344;2022-08-14T05:36:52;20.80;99.90
5919;DHT22;2985;48.142;16.344;2022-08-14T05:42:06;20.70;99.90
5919;DHT22;2985;48.142;16.344;2022-08-14T05:47:16;20.70;99.90
5919;DHT22;2985;48.142;16.344;2022-08-14T05:52:25;20.80;99.90
5919;DHT22;2985;48.142;16.344;2022-08-14T05:57:52;21.00;99.90
5919;DHT22;2985;48.142;16.344;2022-08-14T06:03:03;20.90;99.90
5919;DHT22;2985;48.142;16.344;2022-08-14T06:08:21;21.00;99.90
5919;DHT22;2985;48.142;16.344;2022-08-14T06:13:37;21.00;99.90
5919;DHT22;2985;48.142;16.344;2022-08-14T06:18:47;20.90;99.90
5919;DHT22;2985;48.142;16.344;2022-08-14T06:23:57;20.90;99.90
5919;DHT22;2985;48.142;16.344;2022-08-14T06:29:06;20.90;99.90
5919;DHT22;2985;48.142;16.344;2022-08-14T06:34:15;20.90;99.90
5919;DHT22;2985;48.142;16.344;2022-08-14T06:39:25;21.00;99.90
5919;DHT22;2985;48.142;16.344;2022-08-14T06:44:34;21.00;99.90
5919;DHT22;2985;48.142;16.344;2022-08-14T06:49:43;21.10;99.90
5919;DHT22;2985;48.142;16.344;2022-08-14T06:54:53;21.20;99.90
5919;DHT22;2985;48.142;16.344;2022-08-14T07:00:12;21.30;99.90
5919;DHT22;2985;48.142;16.344;2022-08-14T07:05:21;21.30;99.90
5919;DHT22;2985;48.142;16.344;2022-08-14T07:10:51;21.30;99.90
5919;DHT22;2985;48.142;16.344;2022-08-14T07:16:02;21.40;99.90
5919;DHT22;2985;48.142;16.344;2022-08-14T07:21:11;21.30;99.90
5919;DHT22;2985;48.142;16.344;2022-08-14T07:26:21;21.30;99.90
5919;DHT22;2985;48.142;16.344;2022-08-14T07:31:30;21.40;99.90
5919;DHT22;2985;48.142;16.344;2022-08-14T07:36:39;21.30;99.90
5919;DHT22;2985;48.142;16.344;2022-08-14T07:41:49;21.40;99.90
5919;DHT22;2985;48.142;16.344;2022-08-14T07:46:58;21.40;99.90
5919;DHT22;2985;48.142;16.344;2022-08-14T07:52:08;21.50;99.90
5919;DHT22;2985;48.142;16.344;2022-08-14T07:57:17;21.70;99.90
5919;DHT22;2985;48.142;16.344;2022-08-14T08:02:29;21.80;99.90
5919;DHT22;2985;48.142;16.344;2022-08-14T08:07:41;21.80;99.90
5919;DHT22;2985;48.142;16.344;2022-08-14T08:12:51;22.00;99.90
5919;DHT22;2985;48.142;16.344;2022-08-14T08:18:06;22.00;99.90
5919;DHT22;2985;48.142;16.344;2022-08-14T08:23:18;21.90;99.90
5919;DHT22;2985;48.142;16.344;2022-08-14T08:28:27;21.80;99.90
5919;DHT22;2985;48.142;16.344;2022-08-14T08:33:37;22.00;99.90
5919;DHT22;2985;48.142;16.344;2022-08-14T08:38:47;21.90;99.90
5919;DHT22;2985;48.142;16.344;2022-08-14T08:44:04;22.10;99.90
5919;DHT22;2985;48.142;16.344;2022-08-14T08:49:13;22.30;99.90
5919;DHT22;2985;48.142;16.344;2022-08-14T08:54:23;22.20;99.90
5919;DHT22;2985;48.142;16.344;2022-08-14T08:59:32;22.60;99.90
5919;DHT22;2985;48.142;16.344;2022-08-14T09:04:43;22.90;99.90
5919;DHT22;2985;48.142;16.344;2022-08-14T09:09:53;22.40;99.90
5919;DHT22;2985;48.142;16.344;2022-08-14T09:15:05;22.70;99.90
5919;DHT22;2985;48.142;16.344;2022-08-14T09:20:15;23.00;99.90
5919;DHT22;2985;48.142;16.344;2022-08-14T09:25:25;22.70;99.90
5919;DHT22;2985;48.142;16.344;2022-08-14T09:30:53;22.70;99.90
5919;DHT22;2985;48.142;16.344;2022-08-14T09:48:00;22.90;99.90
5919;DHT22;2985;48.142;16.344;2022-08-14T09:53:09;23.10;99.90
5919;DHT22;2985;48.142;16.344;2022-08-14T09:58:19;23.30;99.90
5919;DHT22;2985;48.142;16.344;2022-08-14T10:03:33;23.50;99.90
5919;DHT22;2985;48.142;16.344;2022-08-14T10:08:50;23.40;99.90
5919;DHT22;2985;48.142;16.344;2022-08-14T10:14:18;23.50;99.90
5919;DHT22;2985;48.142;16.344;2022-08-14T10:19:28;23.70;99.90
5919;DHT22;2985;48.142;16.344;2022-08-14T10:24:39;23.80;99.90
5919;DHT22;2985;48.142;16.344;2022-08-14T10:29:56;24.20;99.90
5919;DHT22;2985;48.142;16.344;2022-08-14T10:35:09;24.40;99.90
5919;DHT22;2985;48.142;16.344;2022-08-14T10:40:30;24.70;99.90
5919;DHT22;2985;48.142;16.344;2022-08-14T10:45:40;24.50;99.90
5919;DHT22;2985;48.142;16.344;2022-08-14T10:51:01;24.50;99.90
5919;DHT22;2985;48.142;16.344;2022-08-14T10:56:11;24.40;99.90
5919;DHT22;2985;48.142;16.344;2022-08-14T11:01:30;24.20;99.90
5919;DHT22;2985;48.142;16.344;2022-08-14T11:06:51;24.40;99.90
5919;DHT22;2985;48.142;16.344;2022-08-14T11:12:01;24.50;99.90
5919;DHT22;2985;48.142;16.344;2022-08-14T11:17:12;24.70;99.90
5919;DHT22;2985;48.142;16.344;2022-08-14T11:22:21;24.60;99.90
5919;DHT22;2985;48.142;16.344;2022-08-14T11:27:34;24.80;99.90
5919;DHT22;2985;48.142;16.344;2022-08-14T11:32:45;24.50;99.90
5919;DHT22;2985;48.142;16.344;2022-08-14T11:37:59;24.60;99.90
5919;DHT22;2985;48.142;16.344;2022-08-14T11:43:09;25.10;99.90
5919;DHT22;2985;48.142;16.344;2022-08-14T11:53:29;25.40;99.90
5919;DHT22;2985;48.142;16.344;2022-08-14T11:58:39;25.50;99.90
5919;DHT22;2985;48.142;16.344;2022-08-14T12:03:48;25.40;99.90
5919;DHT22;2985;48.142;16.344;2022-08-14T12:08:58;25.00;99.90
5919;DHT22;2985;48.142;16.344;2022-08-14T12:14:08;25.00;99.90
5919;DHT22;2985;48.142;16.344;2022-08-14T12:19:17;25.10;99.90
5919;DHT22;2985;48.142;16.344;2022-08-14T12:24:28;25.20;99.90
5919;DHT22;2985;48.142;16.344;2022-08-14T12:29:37;25.70;99.90
5919;DHT22;2985;48.142;16.344;2022-08-14T12:34:52;26.00;99.00
5919;DHT22;2985;48.142;16.344;2022-08-14T12:40:13;26.00;98.80
5919;DHT22;2985;48.142;16.344;2022-08-14T12:45:30;25.80;98.10
5919;DHT22;2985;48.142;16.344;2022-08-14T12:50:41;26.30;97.80
5919;DHT22;2985;48.142;16.344;2022-08-14T12:55:59;26.20;97.20
5919;DHT22;2985;48.142;16.344;2022-08-14T13:01:09;26.40;97.10
5919;DHT22;2985;48.142;16.344;2022-08-14T13:06:26;26.90;96.00
5919;DHT22;2985;48.142;16.344;2022-08-14T13:16:52;26.90;95.10
5919;DHT22;2985;48.142;16.344;2022-08-14T13:22:02;26.60;94.80
5919;DHT22;2985;48.142;16.344;2022-08-14T13:27:12;27.10;94.00
5919;DHT22;2985;48.142;16.344;2022-08-14T13:32:25;26.70;95.00
5919;DHT22;2985;48.142;16.344;2022-08-14T13:37:36;26.90;95.00
5919;DHT22;2985;48.142;16.344;2022-08-14T13:42:48;27.10;94.20
5919;DHT22;2985;48.142;16.344;2022-08-14T13:47:59;27.60;92.80
5919;DHT22;2985;48.142;16.344;2022-08-14T13:53:09;27.60;92.80
5919;DHT22;2985;48.142;16.344;2022-08-14T13:58:23;27.90;92.70
5919;DHT22;2985;48.142;16.344;2022-08-14T14:03:34;27.80;92.00
5919;DHT22;2985;48.142;16.344;2022-08-14T14:08:48;27.30;90.80
5919;DHT22;2985;48.142;16.344;2022-08-14T14:13:58;27.60;90.20
5919;DHT22;2985;48.142;16.344;2022-08-14T14:19:08;27.80;90.40
5919;DHT22;2985;48.142;16.344;2022-08-14T14:24:18;27.30;90.20
5919;DHT22;2985;48.142;16.344;2022-08-14T14:29:32;26.70;90.90
5919;DHT22;2985;48.142;16.344;2022-08-14T14:34:42;27.50;90.20
5919;DHT22;2985;48.142;16.344;2022-08-14T14:39:52;26.80;90.80
5919;DHT22;2985;48.142;16.344;2022-08-14T14:45:22;26.60;91.70
5919;DHT22;2985;48.142;16.344;2022-08-14T14:50:31;27.00;91.20
5919;DHT22;2985;48.142;16.344;2022-08-14T14:55:41;27.10;90.50
5919;DHT22;2985;48.142;16.344;2022-08-14T15:00:56;27.30;90.70
5919;DHT22;2985;48.142;16.344;2022-08-14T15:06:07;27.70;89.70
5919;DHT22;2985;48.142;16.344;2022-08-14T15:11:17;27.60;90.10
5919;DHT22;2985;48.142;16.344;2022-08-14T15:16:27;27.70;90.00
5919;DHT22;2985;48.142;16.344;2022-08-14T15:21:37;28.00;88.90
5919;DHT22;2985;48.142;16.344;2022-08-14T15:26:46;29.00;89.50
5919;DHT22;2985;48.142;16.344;2022-08-14T15:31:55;27.90;88.20
5919;DHT22;2985;48.142;16.344;2022-08-14T15:37:05;28.60;86.70
5919;DHT22;2985;48.142;16.344;2022-08-14T15:42:14;29.40;87.80
5919;DHT22;2985;48.142;16.344;2022-08-14T15:47:25;29.70;84.40
5919;DHT22;2985;48.142;16.344;2022-08-14T15:52:35;29.00;84.40
5919;DHT22;2985;48.142;16.344;2022-08-14T15:57:45;29.00;84.20
5919;DHT22;2985;48.142;16.344;2022-08-14T16:02:55;28.90;84.50
5919;DHT22;2985;48.142;16.344;2022-08-14T16:08:06;30.20;86.10
5919;DHT22;2985;48.142;16.344;2022-08-14T16:13:16;30.40;85.10
5919;DHT22;2985;48.142;16.344;2022-08-14T16:18:26;29.00;85.00
5919;DHT22;2985;48.142;16.344;2022-08-14T16:23:38;28.60;85.10
5919;DHT22;2985;48.142;16.344;2022-08-14T16:28:57;28.30;86.40
5919;DHT22;2985;48.142;16.344;2022-08-14T16:34:17;28.40;86.80
5919;DHT22;2985;48.142;16.344;2022-08-14T16:39:27;27.80;87.90
5919;DHT22;2985;48.142;16.344;2022-08-14T16:44:38;27.90;88.00
5919;DHT22;2985;48.142;16.344;2022-08-14T16:49:47;27.30;88.90
5919;DHT22;2985;48.142;16.344;2022-08-14T16:55:00;27.40;88.80
5919;DHT22;2985;48.142;16.344;2022-08-14T17:00:25;27.50;89.20
5919;DHT22;2985;48.142;16.344;2022-08-14T17:05:38;27.50;89.40
5919;DHT22;2985;48.142;16.344;2022-08-14T17:16:13;27.10;90.00
5919;DHT22;2985;48.142;16.344;2022-08-14T17:21:26;27.10;90.20
5919;DHT22;2985;48.142;16.344;2022-08-14T17:31:52;27.00;90.40
5919;DHT22;2985;48.142;16.344;2022-08-14T17:37:02;26.90;90.50
5919;DHT22;2985;48.142;16.344;2022-08-14T17:42:11;26.90;90.70
5919;DHT22;2985;48.142;16.344;2022-08-14T17:47:25;26.60;91.00
5919;DHT22;2985;48.142;16.344;2022-08-14T17:52:37;26.50;91.10
5919;DHT22;2985;48.142;16.344;2022-08-14T17:57:46;26.30;91.10
5919;DHT22;2985;48.142;16.344;2022-08-14T18:02:56;26.10;91.40
5919;DHT22;2985;48.142;16.344;2022-08-14T18:08:07;26.00;91.60
5919;DHT22;2985;48.142;16.344;2022-08-14T18:13:16;25.90;91.80
5919;DHT22;2985;48.142;16.344;2022-08-14T18:18:27;25.70;92.00
5919;DHT22;2985;48.142;16.344;2022-08-14T18:23:37;25.60;92.20
5919;DHT22;2985;48.142;16.344;2022-08-14T18:28:48;25.50;92.40
5919;DHT22;2985;48.142;16.344;2022-08-14T18:34:05;25.40;92.60
5919;DHT22;2985;48.142;16.344;2022-08-14T18:39:35;25.30;92.80
5919;DHT22;2985;48.142;16.344;2022-08-14T18:50:12;25.10;93.50
5919;DHT22;2985;48.142;16.344;2022-08-14T19:11:00;24.70;94.60
5919;DHT22;2985;48.142;16.344;2022-08-14T19:16:12;24.70;95.00
5919;DHT22;2985;48.142;16.344;2022-08-14T19:26:46;24.50;95.70
5919;DHT22;2985;48.142;16.344;2022-08-14T19:31:59;24.40;95.80
5919;DHT22;2985;48.142;16.344;2022-08-14T19:37:10;24.30;96.50
5919;DHT22;2985;48.142;16.344;2022-08-14T19:42:23;24.10;98.30
5919;DHT22;2985;48.142;16.344;2022-08-14T19:47:37;23.90;98.60
5919;DHT22;2985;48.142;16.344;2022-08-14T19:52:46;23.80;99.10
5919;DHT22;2985;48.142;16.344;2022-08-14T19:57:56;23.80;99.10
5919;DHT22;2985;48.142;16.344;2022-08-14T20:03:07;23.90;98.80
5919;DHT22;2985;48.142;16.344;2022-08-14T20:08:21;23.80;99.00
5919;DHT22;2985;48.142;16.344;2022-08-14T20:13:30;23.70;99.80
5919;DHT22;2985;48.142;16.344;2022-08-14T20:18:40;23.70;99.90
5919;DHT22;2985;48.142;16.344;2022-08-14T20:24:19;23.70;99.90
5919;DHT22;2985;48.142;16.344;2022-08-14T20:29:28;23.50;99.90
5919;DHT22;2985;48.142;16.344;2022-08-14T20:34:39;23.50;99.90
5919;DHT22;2985;48.142;16.344;2022-08-14T20:39:48;23.50;99.90
5919;DHT22;2985;48.142;16.344;2022-08-14T20:45:16;23.30;99.90
5919;DHT22;2985;48.142;16.344;2022-08-14T20:50:28;23.20;99.90
5919;DHT22;2985;48.142;16.344;2022-08-14T20:55:38;23.10;99.90
5919;DHT22;2985;48.142;16.344;2022-08-14T21:01:00;22.90;99.90
5919;DHT22;2985;48.142;16.344;2022-08-14T21:06:22;22.90;99.90
5919;DHT22;2985;48.142;16.344;2022-08-14T21:11:32;22.90;99.90
5919;DHT22;2985;48.142;16.344;2022-08-14T21:16:41;22.80;99.90
5919;DHT22;2985;48.142;16.344;2022-08-14T21:21:53;22.60;99.90
5919;DHT22;2985;48.142;16.344;2022-08-14T21:27:06;22.40;99.90
5919;DHT22;2985;48.142;16.344;2022-08-14T21:32:17;22.20;99.90
5919;DHT22;2985;48.142;16.344;2022-08-14T21:37:40;22.10;99.90
5919;DHT22;2985;48.142;16.344;2022-08-14T21:42:54;22.30;99.90
5919;DHT22;2985;48.142;16.344;2022-08-14T21:48:03;22.20;99.90
5919;DHT22;2985;48.142;16.344;2022-08-14T21:53:13;22.00;99.90
5919;DHT22;2985;48.142;16.344;2022-08-14T21:58:24;22.10;99.90
5919;DHT22;2985;48.142;16.344;2022-08-14T22:03:33;21.90;99.90
5919;DHT22;2985;48.142;16.344;2022-08-14T22:08:42;21.80;99.90
5919;DHT22;2985;48.142;16.344;2022-08-14T22:13:54;21.90;99.90
5919;DHT22;2985;48.142;16.344;2022-08-14T22:19:08;21.90;99.90
5919;DHT22;2985;48.142;16.344;2022-08-14T22:24:19;21.90;99.90
5919;DHT22;2985;48.142;16.344;2022-08-14T22:29:31;21.90;99.90
5919;DHT22;2985;48.142;16.344;2022-08-14T22:34:41;21.80;99.90
5919;DHT22;2985;48.142;16.344;2022-08-14T22:39:51;21.80;99.90
5919;DHT22;2985;48.142;16.344;2022-08-14T22:45:01;21.80;99.90
5919;DHT22;2985;48.142;16.344;2022-08-14T22:50:11;21.70;99.90
5919;DHT22;2985;48.142;16.344;2022-08-14T22:55:20;21.60;99.90
5919;DHT22;2985;48.142;16.344;2022-08-14T23:00:31;21.60;99.90
5919;DHT22;2985;48.142;16.344;2022-08-14T23:05:41;21.60;99.90
5919;DHT22;2985;48.142;16.344;2022-08-14T23:10:50;21.50;99.90
5919;DHT22;2985;48.142;16.344;2022-08-14T23:16:00;21.50;99.90
5919;DHT22;2985;48.142;16.344;2022-08-14T23:21:10;21.50;99.90
5919;DHT22;2985;48.142;16.344;2022-08-14T23:26:21;21.50;99.90
5919;DHT22;2985;48.142;16.344;2022-08-14T23:31:30;21.40;99.90
5919;DHT22;2985;48.142;16.344;2022-08-14T23:36:42;21.50;99.90
5919;DHT22;2985;48.142;16.344;2022-08-14T23:41:53;21.50;99.90
5919;DHT22;2985;48.142;16.344;2022-08-14T23:47:05;21.40;99.90
5919;DHT22;2985;48.142;16.344;2022-08-14T23:52:15;21.30;99.90
5919;DHT22;2985;48.142;16.344;2022-08-14T23:57:24;21.30;99.90
